Time;durP1;ratioP1;P1;durP2;ratioP2;P2;SDS_P1;SDS_P2;PMS_P1;PMS_P2;Temp;Humidity;BMP_temperature;BMP_pressure;BME280_temperature;BME280_humidity;BME280_pressure;Samples;Min_cycle;Max_cycle;Signal;HPM_P1;HPM_P2
2022/11/12 05:00:54;;;;;;;36.08;18.98;;;5.20;99.90;;;;;;6133726;23;20266;-77
2022/11/12 05:03:19;;;;;;;49.60;18.20;;;5.20;99.90;;;;;;6184176;23;20435;-77
2022/11/12 05:05:47;;;;;;;74.30;19.83;;;5.10;99.90;;;;;;6185262;23;20386;-77
2022/11/12 05:08:13;;;;;;;53.95;17.58;;;5.10;99.90;;;;;;6185126;23;20139;-75
2022/11/12 05:10:38;;;;;;;41.17;16.83;;;5.20;99.90;;;;;;6185115;23;20052;-75
2022/11/12 05:13:04;;;;;;;29.13;16.00;;;5.10;99.90;;;;;;6187301;23;20013;-79
2022/11/12 05:15:30;;;;;;;47.53;14.30;;;5.10;99.90;;;;;;6184693;23;20025;-77
2022/11/12 05:17:55;;;;;;;86.78;15.38;;;5.00;99.90;;;;;;6184824;23;20051;-79
2022/11/12 05:20:21;;;;;;;81.45;16.20;;;5.00;99.90;;;;;;6184721;23;20013;-76
2022/11/12 05:22:47;;;;;;;78.88;15.65;;;4.90;99.90;;;;;;6184844;23;20343;-77
2022/11/12 05:25:12;;;;;;;66.85;17.90;;;4.90;99.90;;;;;;6186583;23;20438;-77
2022/11/12 05:27:39;;;;;;;35.70;16.83;;;4.90;99.90;;;;;;6184646;23;20016;-79
2022/11/12 05:30:06;;;;;;;37.65;18.52;;;4.90;99.90;;;;;;6186185;23;20013;-80
2022/11/12 05:32:32;;;;;;;46.95;21.95;;;4.90;99.90;;;;;;6185141;23;20015;-76
2022/11/12 05:34:57;;;;;;;40.63;21.98;;;5.00;99.90;;;;;;6186806;23;20076;-78
2022/11/12 05:37:23;;;;;;;46.08;23.52;;;5.00;99.90;;;;;;6185700;23;20009;-76
2022/11/12 05:39:49;;;;;;;46.35;24.55;;;5.20;99.90;;;;;;6184539;23;20486;-79
2022/11/12 05:42:14;;;;;;;38.95;21.13;;;5.20;99.90;;;;;;6184819;23;20334;-78
2022/11/12 05:44:40;;;;;;;34.42;16.52;;;5.20;99.90;;;;;;6184408;23;20128;-76
2022/11/12 05:47:06;;;;;;;38.00;18.58;;;5.30;99.90;;;;;;6186289;23;20013;-78
2022/11/12 05:49:32;;;;;;;39.40;22.00;;;5.30;99.90;;;;;;6184473;23;20382;-76
2022/11/12 05:51:57;;;;;;;40.47;22.23;;;5.30;99.90;;;;;;6186073;23;20009;-77
2022/11/12 05:54:23;;;;;;;38.50;22.48;;;5.30;99.90;;;;;;6186253;23;20394;-76
2022/11/12 05:56:52;;;;;;;43.22;23.13;;;5.40;99.90;;;;;;6184344;23;20044;-80
2022/11/12 05:59:17;;;;;;;56.75;24.58;;;5.40;99.90;;;;;;6184255;23;20135;-74
2022/11/12 06:01:43;;;;;;;49.78;23.25;;;5.50;99.90;;;;;;6184193;23;20048;-75
2022/11/12 06:04:11;;;;;;;58.25;26.63;;;5.50;99.90;;;;;;6184422;23;20013;-79
2022/11/12 06:06:37;;;;;;;43.53;21.27;;;5.50;99.90;;;;;;6186304;23;20036;-80
2022/11/12 06:09:03;;;;;;;52.33;22.52;;;5.60;99.90;;;;;;6184218;23;20017;-77
2022/11/12 06:11:28;;;;;;;50.15;23.73;;;5.60;99.90;;;;;;6184321;23;20067;-79
2022/11/12 06:13:54;;;;;;;57.17;23.40;;;5.60;99.90;;;;;;6184258;23;20443;-76
2022/11/12 06:16:20;;;;;;;98.30;30.70;;;5.60;99.90;;;;;;6186154;23;20335;-80
2022/11/12 06:18:45;;;;;;;76.18;27.60;;;5.70;99.90;;;;;;6184114;23;20136;-79
2022/11/12 06:21:23;;;;;;;113.75;33.53;;;5.70;99.90;;;;;;6184706;23;20009;-76
2022/11/12 06:23:55;;;;;;;111.63;31.77;;;5.70;99.90;;;;;;6184252;23;20080;-73
2022/11/12 06:26:21;;;;;;;126.32;31.55;;;5.70;99.90;;;;;;6184061;23;20020;-77
2022/11/12 06:28:48;;;;;;;258.45;43.28;;;5.80;99.90;;;;;;6186637;23;20088;-77
2022/11/12 06:31:14;;;;;;;99.03;30.77;;;5.80;99.90;;;;;;6185605;23;20481;-77
2022/11/12 06:33:40;;;;;;;216.63;39.83;;;5.80;99.90;;;;;;6184045;23;20084;-77
2022/11/12 06:36:10;;;;;;;178.43;39.72;;;5.80;99.90;;;;;;6184146;23;20024;-75
2022/11/12 06:38:38;;;;;;;210.07;42.08;;;5.90;99.90;;;;;;6185976;23;20343;-78
2022/11/12 06:41:05;;;;;;;130.63;32.60;;;5.90;99.90;;;;;;6186045;23;20016;-80
2022/11/12 06:43:32;;;;;;;131.98;31.48;;;5.90;99.90;;;;;;6188393;23;20009;-77
2022/11/12 06:46:11;;;;;;;160.48;33.85;;;5.90;99.90;;;;;;6188529;23;20126;-78
2022/11/12 06:48:37;;;;;;;121.68;30.63;;;6.00;99.90;;;;;;6186126;23;20093;-77
2022/11/12 06:51:14;;;;;;;174.57;32.67;;;6.00;99.90;;;;;;6187856;23;20371;-78
2022/11/12 06:53:40;;;;;;;79.38;24.35;;;6.00;99.90;;;;;;6186164;23;20013;-78
2022/11/12 06:56:06;;;;;;;157.10;33.03;;;6.00;99.90;;;;;;6185840;23;20025;-76
2022/11/12 06:58:32;;;;;;;233.93;38.85;;;6.10;99.90;;;;;;6185953;23;20012;-79
2022/11/12 07:01:22;;;;;;;185.48;36.05;;;6.10;99.90;;;;;;6185551;23;20005;-77
2022/11/12 07:03:52;;;;;;;99.80;29.83;;;6.10;99.90;;;;;;6185673;23;20520;-76
2022/11/12 07:06:19;;;;;;;161.23;34.47;;;6.10;99.90;;;;;;6185703;23;20092;-78
2022/11/12 07:08:45;;;;;;;123.63;30.73;;;6.10;99.90;;;;;;6185105;23;20020;-77
2022/11/12 07:11:12;;;;;;;126.28;31.10;;;6.10;99.90;;;;;;6187368;23;20080;-79
2022/11/12 07:13:38;;;;;;;135.63;34.15;;;6.20;99.90;;;;;;6185728;23;20055;-77
2022/11/12 07:16:06;;;;;;;138.10;33.15;;;6.20;99.90;;;;;;6187597;23;20423;-78
2022/11/12 07:18:33;;;;;;;136.18;32.60;;;6.20;99.90;;;;;;6185485;23;20035;-75
2022/11/12 07:21:11;;;;;;;132.98;33.30;;;6.30;99.90;;;;;;6185597;23;20041;-75
2022/11/12 07:23:37;;;;;;;130.57;34.92;;;6.20;99.90;;;;;;6160741;23;20017;-77
2022/11/12 07:26:05;;;;;;;174.07;37.92;;;6.30;99.90;;;;;;6187156;23;20017;-77
2022/11/12 07:28:32;;;;;;;138.90;35.03;;;6.30;99.90;;;;;;6185585;23;20021;-77
2022/11/12 07:31:03;;;;;;;104.20;30.80;;;6.30;99.90;;;;;;6185697;23;20092;-80
2022/11/12 07:33:29;;;;;;;148.40;39.40;;;6.30;99.90;;;;;;6187506;23;20044;-78
2022/11/12 07:36:21;;;;;;;155.93;38.17;;;6.40;99.90;;;;;;6186259;23;20052;-80
2022/11/12 07:38:50;;;;;;;138.70;37.45;;;6.40;99.90;;;;;;6204072;23;20067;-78
2022/11/12 07:41:19;;;;;;;136.15;38.17;;;6.40;99.90;;;;;;6160622;23;20071;-79
2022/11/12 07:43:46;;;;;;;116.82;34.08;;;6.40;99.90;;;;;;6186855;23;20013;-76
2022/11/12 07:46:16;;;;;;;140.23;36.28;;;6.50;99.90;;;;;;6193999;23;20017;-75
2022/11/12 07:48:43;;;;;;;148.55;35.78;;;6.50;99.90;;;;;;6190158;23;20013;-80
2022/11/12 07:51:13;;;;;;;110.53;33.58;;;6.50;99.90;;;;;;6186502;23;20028;-77
2022/11/12 07:53:39;;;;;;;137.98;35.35;;;6.50;99.90;;;;;;6186138;23;20100;-79
2022/11/12 07:56:06;;;;;;;122.80;32.38;;;6.50;99.90;;;;;;6185347;23;20024;-80
2022/11/12 07:58:33;;;;;;;116.65;32.65;;;6.50;99.90;;;;;;6185534;23;20013;-80
2022/11/12 08:01:19;;;;;;;130.10;34.10;;;6.50;99.90;;;;;;6186022;23;20019;-79
2022/11/12 08:03:45;;;;;;;119.55;32.60;;;6.50;99.90;;;;;;6185440;23;20059;-79
2022/11/12 08:06:10;;;;;;;122.38;30.40;;;6.50;99.90;;;;;;6187041;23;20017;-79
2022/11/12 08:08:36;;;;;;;123.20;33.67;;;6.50;99.90;;;;;;6185498;23;20020;-80
2022/11/12 08:11:02;;;;;;;154.25;34.30;;;6.50;99.90;;;;;;6183016;23;20037;-75
2022/11/12 08:13:27;;;;;;;155.98;34.92;;;6.60;99.90;;;;;;6183186;23;20047;-79
2022/11/12 08:15:56;;;;;;;115.20;31.73;;;6.50;99.90;;;;;;6183165;23;20013;-78
2022/11/12 08:18:22;;;;;;;172.95;34.75;;;6.50;99.90;;;;;;6182994;23;20339;-78
2022/11/12 08:20:47;;;;;;;219.27;38.05;;;6.60;99.90;;;;;;6183021;23;20107;-79
2022/11/12 08:23:13;;;;;;;197.60;35.03;;;6.60;99.90;;;;;;6157935;23;20023;-82
2022/11/12 08:25:38;;;;;;;209.45;34.50;;;6.60;99.90;;;;;;6185186;23;20101;-78
2022/11/12 08:28:04;;;;;;;235.23;37.72;;;6.60;99.90;;;;;;6185507;23;20020;-77
2022/11/12 08:30:30;;;;;;;210.60;35.95;;;6.70;99.90;;;;;;6186849;23;20088;-78
2022/11/12 08:32:58;;;;;;;231.30;39.53;;;6.70;99.90;;;;;;6185115;23;20347;-81
2022/11/12 08:35:25;;;;;;;167.02;35.15;;;6.70;99.90;;;;;;6185319;23;20439;-81
2022/11/12 08:37:50;;;;;;;198.80;39.45;;;6.70;99.90;;;;;;6185421;23;20342;-78
2022/11/12 08:40:16;;;;;;;263.50;43.45;;;6.80;99.90;;;;;;6187175;23;20044;-81
2022/11/12 08:42:41;;;;;;;306.52;43.92;;;6.80;99.90;;;;;;6184661;23;20041;-78
2022/11/12 08:45:08;;;;;;;185.57;37.70;;;6.90;99.90;;;;;;6185367;23;20407;-82
2022/11/12 08:47:35;;;;;;;195.35;38.38;;;6.90;99.90;;;;;;6185608;23;20013;-86
2022/11/12 08:50:01;;;;;;;317.40;46.38;;;6.90;99.90;;;;;;6187656;23;20377;-85
2022/11/12 08:52:26;;;;;;;311.73;49.47;;;7.00;99.90;;;;;;6185662;23;20089;-84
2022/11/12 08:54:52;;;;;;;296.60;43.67;;;7.00;99.90;;;;;;6184619;23;20435;-85
2022/11/12 08:57:18;;;;;;;354.15;52.70;;;7.10;99.90;;;;;;6186578;23;20017;-76
2022/11/12 08:59:44;;;;;;;325.88;51.47;;;7.10;99.90;;;;;;6184216;23;20024;-85
2022/11/12 09:02:12;;;;;;;259.48;47.38;;;7.10;99.90;;;;;;6186304;23;20009;-83
2022/11/12 09:04:38;;;;;;;285.45;49.25;;;7.20;99.90;;;;;;6184912;23;20013;-81
2022/11/12 09:07:07;;;;;;;413.88;60.10;;;7.10;99.90;;;;;;6186089;23;20024;-86
2022/11/12 09:09:32;;;;;;;218.07;41.75;;;7.10;99.90;;;;;;6185014;23;20016;-83
2022/11/12 09:12:18;;;;;;;;;;;;;;;;;;;;;
2022/11/12 09:14:57;;;;;;;414.00;57.28;;;7.10;99.90;;;;;;6186020;23;20391;-85
2022/11/12 09:17:23;;;;;;;227.27;45.50;;;7.10;99.90;;;;;;6183629;23;20443;-84
2022/11/12 09:19:48;;;;;;;209.32;44.25;;;7.10;99.90;;;;;;6186069;23;20060;-83
2022/11/12 09:22:14;;;;;;;272.23;48.33;;;7.10;99.90;;;;;;6185342;23;20013;-86
2022/11/12 09:24:39;;;;;;;278.45;47.42;;;7.10;99.90;;;;;;6185190;23;20061;-88
2022/11/12 09:27:05;;;;;;;315.40;51.10;;;7.20;99.90;;;;;;6184505;23;20056;-85
2022/11/12 09:29:33;;;;;;;264.52;47.42;;;7.20;99.90;;;;;;6185934;23;20462;-90
2022/11/12 09:31:59;;;;;;;209.05;42.15;;;7.20;99.90;;;;;;6186464;23;20005;-73
2022/11/12 09:34:24;;;;;;;275.50;45.85;;;7.30;99.90;;;;;;6186134;23;20009;-78
2022/11/12 09:36:50;;;;;;;424.35;53.90;;;7.30;99.90;;;;;;6184715;23;20069;-81
2022/11/12 09:39:16;;;;;;;481.48;63.42;;;7.30;99.90;;;;;;6184331;23;20013;-80
2022/11/12 09:41:42;;;;;;;422.52;58.70;;;7.30;99.90;;;;;;6184199;23;20364;-79
2022/11/12 09:44:26;;;;;;;368.60;52.47;;;7.30;99.90;;;;;;6184195;23;20020;-78
2022/11/12 09:46:56;;;;;;;353.20;54.00;;;7.40;99.90;;;;;;6184001;23;20021;-79
2022/11/12 09:49:34;;;;;;;220.40;43.45;;;7.40;99.90;;;;;;6184188;23;20069;-80
2022/11/12 09:52:05;;;;;;;318.60;48.97;;;7.40;99.90;;;;;;6184068;23;20084;-79
2022/11/12 09:54:33;;;;;;;306.58;46.45;;;7.40;99.90;;;;;;6185361;23;20479;-78
2022/11/12 09:57:00;;;;;;;301.88;50.03;;;7.40;99.90;;;;;;6185773;23;20013;-78
2022/11/12 09:59:31;;;;;;;237.10;46.25;;;7.40;99.90;;;;;;6183748;23;20433;-79
2022/11/12 10:02:35;;;;;;;331.60;53.85;;;7.40;99.90;;;;;;6183713;23;20013;-79
2022/11/12 10:05:34;;;;;;;386.52;58.30;;;7.40;99.90;;;;;;6184139;23;20052;-79
2022/11/12 10:08:18;;;;;;;188.00;43.50;;;7.40;99.90;;;;;;6184684;23;20009;-80
2022/11/12 10:10:49;;;;;;;211.05;50.05;;;7.50;99.90;;;;;;6185387;23;20020;-78
2022/11/12 10:13:56;;;;;;;144.77;45.80;;;7.50;99.90;;;;;;6183906;23;20081;-81
2022/11/12 10:16:42;;;;;;;193.57;45.40;;;7.60;99.90;;;;;;6183640;23;20017;-79
2022/11/12 10:19:23;;;;;;;244.20;50.00;;;7.60;99.90;;;;;;6183953;23;20013;-80
2022/11/12 10:22:06;;;;;;;177.73;46.83;;;7.60;99.90;;;;;;6185849;23;20013;-80
2022/11/12 10:24:37;;;;;;;100.13;40.47;;;7.60;99.90;;;;;;6183942;23;20017;-79
2022/11/12 10:27:20;;;;;;;180.25;46.05;;;7.70;99.90;;;;;;6184015;23;20024;-79
2022/11/12 10:29:55;;;;;;;209.90;46.85;;;7.70;99.90;;;;;;6183722;23;20063;-78
2022/11/12 10:32:21;;;;;;;136.68;43.28;;;7.70;99.90;;;;;;6183402;23;20020;-79
2022/11/12 10:34:46;;;;;;;68.57;36.75;;;7.70;99.90;;;;;;6183588;23;20473;-82
2022/11/12 10:37:21;;;;;;;98.57;41.03;;;7.80;99.90;;;;;;6183792;23;20017;-77
2022/11/12 10:39:46;;;;;;;82.03;38.40;;;7.90;99.90;;;;;;6183739;23;20009;-78
2022/11/12 10:42:15;;;;;;;108.47;41.10;;;7.90;99.90;;;;;;6183450;23;20021;-80
2022/11/12 10:44:42;;;;;;;98.07;37.25;;;7.90;99.90;;;;;;6185131;23;20439;-79
2022/11/12 10:47:16;;;;;;;91.40;43.10;;;8.00;99.90;;;;;;6183751;23;20465;-80
2022/11/12 10:49:42;;;;;;;65.30;34.03;;;8.00;99.90;;;;;;6183957;23;20477;-81
2022/11/12 10:52:22;;;;;;;59.20;32.20;;;8.10;99.90;;;;;;6183608;23;20013;-78
2022/11/12 10:54:48;;;;;;;57.67;33.08;;;8.10;99.90;;;;;;6159110;23;20013;-78
2022/11/12 10:57:25;;;;;;;97.78;38.17;;;8.20;99.90;;;;;;6183825;23;20021;-79
2022/11/12 11:00:13;;;;;;;72.03;34.72;;;8.20;99.90;;;;;;6184424;23;20327;-81
2022/11/12 11:02:49;;;;;;;71.60;35.40;;;8.20;99.90;;;;;;6183730;23;20015;-79
2022/11/12 11:05:32;;;;;;;77.78;34.58;;;8.30;99.90;;;;;;6186515;23;20323;-79
2022/11/12 11:07:58;;;;;;;71.80;33.40;;;8.40;99.90;;;;;;6185581;23;20009;-80
2022/11/12 11:10:33;;;;;;;58.65;33.25;;;8.40;99.90;;;;;;6183968;23;20457;-79
2022/11/12 11:13:24;;;;;;;51.55;31.70;;;8.60;99.90;;;;;;6186005;23;20088;-79
2022/11/12 11:16:03;;;;;;;53.38;32.55;;;8.70;99.90;;;;;;6184040;23;20017;-80
2022/11/12 11:18:32;;;;;;;51.75;31.50;;;9.10;99.90;;;;;;6183830;23;20350;-79
2022/11/12 11:21:12;;;;;;;45.33;28.52;;;9.30;99.90;;;;;;6185347;23;20009;-79
2022/11/12 11:23:55;;;;;;;41.85;27.90;;;9.60;99.90;;;;;;6184995;23;20382;-78
2022/11/12 11:26:59;;;;;;;46.75;28.83;;;9.80;99.90;;;;;;6161023;23;20020;-79
2022/11/12 11:29:58;;;;;;;39.30;25.48;;;10.10;99.90;;;;;;6185702;23;20017;-80
2022/11/12 11:32:48;;;;;;;34.13;23.15;;;10.40;99.90;;;;;;6185664;23;20088;-81
2022/11/12 11:35:32;;;;;;;31.23;22.42;;;10.70;99.90;;;;;;6185688;23;20123;-80
2022/11/12 11:38:13;;;;;;;30.83;22.35;;;10.90;99.90;;;;;;6161234;23;20085;-79
2022/11/12 11:41:43;;;;;;;29.48;20.45;;;11.10;99.90;;;;;;6187042;23;20013;-79
2022/11/12 11:44:26;;;;;;;27.73;18.50;;;11.30;99.90;;;;;;6101703;23;20010;-80
2022/11/12 11:47:07;;;;;;;26.70;18.05;;;11.50;99.90;;;;;;6100949;23;20018;-80
2022/11/12 11:50:10;;;;;;;23.92;17.40;;;11.70;99.90;;;;;;6157829;23;20385;-80
2022/11/12 11:52:54;;;;;;;23.23;17.30;;;11.90;99.90;;;;;;6186360;23;20063;-78
2022/11/12 11:55:23;;;;;;;25.85;16.80;;;12.00;99.90;;;;;;6185660;23;20017;-80
2022/11/12 11:58:16;;;;;;;20.92;16.98;;;12.10;99.90;;;;;;6186512;23;20064;-77
2022/11/12 12:00:53;;;;;;;21.00;15.30;;;12.30;99.90;;;;;;6187395;23;20025;-77
2022/11/12 12:03:42;;;;;;;22.95;14.43;;;12.40;99.90;;;;;;6160953;23;20055;-82
2022/11/12 12:06:29;;;;;;;21.05;15.43;;;12.50;99.90;;;;;;6185652;23;20024;-80
2022/11/12 12:09:11;;;;;;;20.25;14.90;;;12.60;99.90;;;;;;6185735;23;20017;-80
2022/11/12 12:12:01;;;;;;;21.05;14.30;;;12.70;99.90;;;;;;6185232;23;20341;-82
2022/11/12 12:14:54;;;;;;;18.60;13.70;;;12.80;99.90;;;;;;6185363;23;20435;-81
2022/11/12 12:17:31;;;;;;;19.92;13.23;;;13.00;99.90;;;;;;6186754;23;20019;-79
2022/11/12 12:20:02;;;;;;;20.77;14.10;;;13.20;99.90;;;;;;6186828;23;20435;-78
2022/11/12 12:22:43;;;;;;;18.95;12.60;;;13.30;99.90;;;;;;6160712;23;20080;-81
2022/11/12 12:25:18;;;;;;;16.60;12.10;;;13.40;99.90;;;;;;6185790;23;20009;-80
2022/11/12 12:28:00;;;;;;;15.48;10.25;;;13.50;99.90;;;;;;6186022;23;20435;-79
2022/11/12 12:30:27;;;;;;;13.63;10.07;;;13.70;99.90;;;;;;6186722;23;20442;-78
2022/11/12 12:32:59;;;;;;;13.20;9.80;;;13.80;99.90;;;;;;6163579;23;20036;-77
2022/11/12 12:35:35;;;;;;;13.57;10.63;;;13.90;99.90;;;;;;6188697;23;20017;-82
2022/11/12 12:38:31;;;;;;;14.00;10.02;;;14.10;99.90;;;;;;6195998;23;20013;-75
2022/11/12 12:41:26;;;;;;;16.70;9.55;;;14.20;99.90;;;;;;6194632;23;20013;-76
2022/11/12 12:43:57;;;;;;;16.00;9.77;;;14.30;99.90;;;;;;6211801;23;20020;-76
2022/11/12 12:46:26;;;;;;;12.32;9.23;;;14.40;99.90;;;;;;6186386;23;20032;-78
2022/11/12 12:48:53;;;;;;;14.20;9.48;;;14.50;99.90;;;;;;6185722;23;20023;-82
2022/11/12 12:51:20;;;;;;;15.73;9.40;;;14.60;99.90;;;;;;6185716;23;20089;-77
2022/11/12 12:53:46;;;;;;;13.95;9.52;;;14.70;99.90;;;;;;6160689;23;20051;-76
2022/11/12 12:56:11;;;;;;;13.85;9.13;;;14.70;99.90;;;;;;6185134;23;20017;-80
2022/11/12 12:58:47;;;;;;;12.52;9.23;;;14.80;99.90;;;;;;6186903;23;20104;-77
2022/11/12 13:01:33;;;;;;;12.82;9.40;;;14.90;99.90;;;;;;6186778;23;20419;-78
2022/11/12 13:04:08;;;;;;;13.75;9.88;;;14.90;99.90;;;;;;6187371;23;20016;-80
2022/11/12 13:06:33;;;;;;;15.57;9.07;;;15.00;99.90;;;;;;6185203;23;20021;-77
2022/11/12 13:09:23;;;;;;;13.13;9.25;;;14.90;99.90;;;;;;6185384;23;20531;-80
2022/11/12 13:14:34;;;;;;;13.70;9.05;;;14.90;99.90;;;;;;6187382;23;20079;-81
2022/11/12 13:17:09;;;;;;;14.82;9.48;;;15.00;99.90;;;;;;6184961;23;20447;-78
2022/11/12 13:19:53;;;;;;;14.25;8.63;;;15.00;99.90;;;;;;6185093;23;20021;-79
2022/11/12 13:22:19;;;;;;;12.55;8.45;;;15.00;99.90;;;;;;6184509;23;20020;-80
2022/11/12 13:25:07;;;;;;;13.98;8.80;;;15.00;99.90;;;;;;6184830;23;20009;-79
2022/11/12 13:27:42;;;;;;;13.25;8.82;;;15.10;99.90;;;;;;6184689;23;20023;-79
2022/11/12 13:30:16;;;;;;;12.60;8.30;;;15.10;99.90;;;;;;6186678;23;20076;-79
2022/11/12 13:32:44;;;;;;;13.13;8.18;;;15.10;99.90;;;;;;6184624;23;20488;-77
2022/11/12 13:35:16;;;;;;;11.98;9.00;;;15.10;99.90;;;;;;6184352;23;20013;-79
2022/11/12 13:37:59;;;;;;;15.13;9.27;;;15.20;99.90;;;;;;6184677;23;20133;-80
2022/11/12 13:40:51;;;;;;;13.15;9.18;;;15.20;99.90;;;;;;6209696;23;20008;-78
2022/11/12 13:43:30;;;;;;;13.23;9.13;;;15.20;99.90;;;;;;6209995;23;20339;-75
2022/11/12 13:46:26;;;;;;;11.27;8.60;;;15.20;99.90;;;;;;6185010;23;20064;-84
2022/11/12 13:49:02;;;;;;;13.48;8.75;;;15.30;99.90;;;;;;6184736;23;20016;-78
2022/11/12 13:51:39;;;;;;;11.75;8.63;;;15.30;99.90;;;;;;6184692;23;20021;-78
2022/11/12 13:54:37;;;;;;;14.82;8.98;;;15.40;99.90;;;;;;6184379;23;20013;-78
2022/11/12 13:57:22;;;;;;;13.45;9.10;;;15.30;99.90;;;;;;6184744;23;20021;-82
2022/11/12 14:00:06;;;;;;;13.60;8.80;;;15.30;99.90;;;;;;6186528;23;20420;-82
2022/11/12 14:02:32;;;;;;;12.98;8.30;;;15.30;99.90;;;;;;6185920;23;20005;-82
2022/11/12 14:04:59;;;;;;;12.60;8.00;;;15.40;99.90;;;;;;6186122;23;20009;-81
2022/11/12 14:07:50;;;;;;;17.63;8.73;;;15.40;99.90;;;;;;6184260;23;20028;-80
2022/11/12 14:10:31;;;;;;;12.32;8.70;;;15.70;99.90;;;;;;6184391;23;20024;-78
2022/11/12 14:13:22;;;;;;;13.38;8.52;;;15.90;99.90;;;;;;6184816;23;20013;-80
2022/11/12 14:16:00;;;;;;;12.82;8.65;;;16.00;99.90;;;;;;6184551;23;20064;-79
2022/11/12 14:19:05;;;;;;;13.20;8.35;;;15.90;99.90;;;;;;6184587;23;20087;-81
2022/11/12 14:21:31;;;;;;;10.43;8.02;;;15.60;99.90;;;;;;6184271;23;20017;-78
2022/11/12 14:23:56;;;;;;;13.45;9.27;;;15.50;99.90;;;;;;6184138;23;20020;-77
2022/11/12 14:26:40;;;;;;;11.50;8.43;;;15.30;99.90;;;;;;6184656;23;20342;-81
2022/11/12 14:29:06;;;;;;;15.02;9.13;;;15.20;99.90;;;;;;6184412;23;20020;-75
2022/11/12 14:31:32;;;;;;;12.18;9.00;;;15.00;99.90;;;;;;6186276;23;20390;-82
2022/11/12 14:34:46;;;;;;;13.32;9.40;;;14.80;99.90;;;;;;6210041;23;20029;-81
2022/11/12 14:37:47;;;;;;;12.52;8.80;;;14.70;99.90;;;;;;6158671;23;20516;-80
2022/11/12 14:40:17;;;;;;;14.30;9.02;;;14.60;99.90;;;;;;6159816;23;20067;-82
2022/11/12 14:42:53;;;;;;;;;;;;;;;;;;;;;
2022/11/12 14:45:36;;;;;;;15.05;8.63;;;14.40;99.90;;;;;;6184432;23;20013;-78
2022/11/12 14:48:08;;;;;;;13.88;9.73;;;14.30;99.90;;;;;;6183952;23;20032;-75
2022/11/12 14:50:33;;;;;;;13.77;9.65;;;14.20;99.90;;;;;;6183713;23;20009;-79
2022/11/12 14:53:05;;;;;;;14.75;9.95;;;14.10;99.90;;;;;;6186075;23;20359;-80
2022/11/12 14:55:35;;;;;;;17.10;10.27;;;14.10;99.90;;;;;;6185604;23;20017;-79
2022/11/12 14:58:02;;;;;;;16.83;9.75;;;13.90;99.90;;;;;;6183264;23;20380;-77
2022/11/12 15:00:31;;;;;;;16.38;10.50;;;13.80;99.90;;;;;;6210450;23;20044;-80
2022/11/12 15:03:00;;;;;;;17.52;11.48;;;13.70;99.90;;;;;;6186118;23;20012;-78
2022/11/12 15:05:26;;;;;;;15.00;10.68;;;13.50;99.90;;;;;;6185306;23;20020;-77
2022/11/12 15:07:57;;;;;;;14.48;10.30;;;13.40;99.90;;;;;;6186875;23;20357;-77
2022/11/12 15:10:35;;;;;;;13.43;10.15;;;13.30;99.90;;;;;;6185148;23;20048;-80
2022/11/12 15:13:14;;;;;;;14.50;10.63;;;13.10;99.90;;;;;;6185748;23;20013;-79
2022/11/12 15:15:49;;;;;;;17.60;11.25;;;13.00;99.90;;;;;;6188041;23;20403;-78
2022/11/12 15:18:18;;;;;;;15.70;11.45;;;12.90;99.90;;;;;;6185854;23;20013;-78
2022/11/12 15:20:44;;;;;;;18.75;11.57;;;12.80;99.90;;;;;;6185748;23;20036;-78
2022/11/12 15:23:19;;;;;;;15.85;10.80;;;12.70;99.90;;;;;;6185162;23;20013;-78
2022/11/12 15:25:44;;;;;;;19.13;10.23;;;12.70;99.90;;;;;;6186833;23;20021;-79
2022/11/12 15:28:21;;;;;;;17.40;12.07;;;12.60;99.90;;;;;;6187081;23;20287;-80
2022/11/12 15:31:00;;;;;;;16.42;11.43;;;12.50;99.90;;;;;;6185633;23;20025;-80
2022/11/12 15:33:25;;;;;;;15.68;10.82;;;12.40;99.90;;;;;;6185848;23;20032;-80
2022/11/12 15:35:57;;;;;;;16.90;11.43;;;12.20;99.90;;;;;;6186970;23;20108;-78
2022/11/12 15:38:36;;;;;;;17.33;12.30;;;12.10;99.90;;;;;;6184983;23;20017;-78
2022/11/12 15:41:03;;;;;;;16.38;11.45;;;12.00;99.90;;;;;;6185394;23;20080;-77
2022/11/12 15:43:33;;;;;;;19.80;12.07;;;11.90;99.90;;;;;;6185524;23;20009;-79
2022/11/12 15:45:58;;;;;;;17.95;12.55;;;11.80;99.90;;;;;;6185307;23;20021;-79
2022/11/12 15:48:24;;;;;;;20.92;13.30;;;11.70;99.90;;;;;;6185602;23;20415;-79
2022/11/12 15:50:50;;;;;;;18.77;12.60;;;11.60;99.90;;;;;;6184988;23;20459;-78
2022/11/12 15:53:15;;;;;;;22.92;14.10;;;11.60;99.90;;;;;;6186376;23;20016;-79
2022/11/12 15:55:43;;;;;;;21.45;12.98;;;11.50;99.90;;;;;;6185383;23;20063;-81
2022/11/12 15:58:24;;;;;;;19.30;11.98;;;11.40;99.90;;;;;;6185124;23;20514;-79
2022/11/12 16:00:50;;;;;;;17.70;11.32;;;11.30;99.90;;;;;;6184788;23;20013;-79
2022/11/12 16:03:20;;;;;;;21.50;13.02;;;11.20;99.90;;;;;;6186410;23;20084;-76
2022/11/12 16:05:47;;;;;;;21.65;12.68;;;11.20;99.90;;;;;;6184790;23;20098;-78
2022/11/12 16:08:13;;;;;;;22.38;14.70;;;11.10;99.90;;;;;;6160405;23;20032;-78
2022/11/12 16:10:40;;;;;;;22.45;14.23;;;11.00;99.90;;;;;;6184587;23;20017;-79
2022/11/12 16:13:13;;;;;;;16.83;12.20;;;10.90;99.90;;;;;;6185883;23;20021;-81
2022/11/12 16:15:39;;;;;;;19.38;12.05;;;10.90;99.90;;;;;;6185355;23;20024;-84
2022/11/12 16:18:05;;;;;;;21.98;13.30;;;10.80;99.90;;;;;;6184716;23;20009;-81
2022/11/12 16:20:34;;;;;;;18.85;12.57;;;10.70;99.90;;;;;;6186560;23;20446;-77
2022/11/12 16:23:00;;;;;;;22.33;12.90;;;10.60;99.90;;;;;;6187285;23;20012;-83
2022/11/12 16:25:32;;;;;;;23.25;14.05;;;10.50;99.90;;;;;;6186274;23;20020;-77
2022/11/12 16:28:00;;;;;;;22.25;14.10;;;10.50;99.90;;;;;;6184781;23;20017;-80
2022/11/12 16:30:31;;;;;;;20.75;13.20;;;10.40;99.90;;;;;;6184711;23;20013;-78
2022/11/12 16:32:58;;;;;;;25.42;15.73;;;10.40;99.90;;;;;;6187074;23;20040;-79
2022/11/12 16:35:24;;;;;;;19.25;13.30;;;10.30;99.90;;;;;;6186271;23;20047;-77
2022/11/12 16:37:52;;;;;;;23.27;13.07;;;10.30;99.90;;;;;;6184245;23;20096;-79
2022/11/12 16:40:21;;;;;;;22.17;14.20;;;10.20;99.90;;;;;;6158930;23;20037;-79
2022/11/12 16:42:46;;;;;;;18.75;12.32;;;10.20;99.90;;;;;;6183970;23;20009;-81
2022/11/12 16:45:15;;;;;;;18.45;12.90;;;10.10;99.90;;;;;;6184075;23;20020;-81
2022/11/12 16:47:46;;;;;;;25.20;14.93;;;10.00;99.90;;;;;;6185647;23;20084;-77
2022/11/12 16:50:13;;;;;;;21.23;13.90;;;10.00;99.90;;;;;;6184191;23;20142;-82
2022/11/12 16:52:39;;;;;;;22.63;14.73;;;9.90;99.90;;;;;;6184535;23;20009;-79
2022/11/12 16:55:05;;;;;;;22.33;13.98;;;9.90;99.90;;;;;;6184860;23;20075;-80
2022/11/12 16:57:32;;;;;;;26.30;16.63;;;9.90;99.90;;;;;;6185074;23;20037;-79
2022/11/12 16:59:58;;;;;;;28.10;17.08;;;9.80;99.90;;;;;;6185773;23;20037;-80
2022/11/12 17:02:23;;;;;;;26.10;16.77;;;9.70;99.90;;;;;;6159657;23;20068;-76
2022/11/12 17:04:49;;;;;;;26.98;16.05;;;9.70;99.90;;;;;;6184672;23;20017;-79
2022/11/12 17:07:15;;;;;;;27.77;18.33;;;9.70;99.90;;;;;;6183970;23;20347;-82
2022/11/12 17:09:41;;;;;;;26.08;17.10;;;9.60;99.90;;;;;;6185321;23;20045;-80
2022/11/12 17:12:08;;;;;;;28.15;16.35;;;9.60;99.90;;;;;;6184255;23;20024;-79
2022/11/12 17:14:33;;;;;;;25.70;15.00;;;9.60;99.90;;;;;;6186354;23;20096;-83
2022/11/12 17:16:59;;;;;;;26.05;16.60;;;9.50;99.90;;;;;;6184602;23;20064;-83
2022/11/12 17:19:25;;;;;;;26.98;16.58;;;9.50;99.90;;;;;;6186451;23;20012;-77
2022/11/12 17:21:51;;;;;;;35.13;18.85;;;9.40;99.90;;;;;;6184289;23;20443;-83
2022/11/12 17:24:17;;;;;;;27.20;16.95;;;9.40;99.90;;;;;;6184293;23;20434;-81
2022/11/12 17:26:43;;;;;;;28.10;16.85;;;9.40;99.90;;;;;;6186181;23;20416;-82
2022/11/12 17:29:09;;;;;;;24.35;15.52;;;9.40;99.90;;;;;;6184718;23;20019;-79
2022/11/12 17:31:34;;;;;;;22.65;14.77;;;9.30;99.90;;;;;;6184666;23;20427;-83
2022/11/12 17:34:02;;;;;;;21.10;13.90;;;9.30;99.90;;;;;;6184319;23;20017;-82
2022/11/12 17:36:28;;;;;;;23.75;14.95;;;9.20;99.90;;;;;;6185978;23;20024;-84
2022/11/12 17:38:55;;;;;;;20.15;14.13;;;9.20;99.90;;;;;;6184653;23;20013;-80
2022/11/12 17:41:21;;;;;;;22.88;15.27;;;9.10;99.90;;;;;;6184331;23;20009;-83
2022/11/12 17:43:47;;;;;;;24.52;15.98;;;9.10;99.90;;;;;;6184953;23;20017;-79
2022/11/12 17:46:13;;;;;;;20.73;14.35;;;9.10;99.90;;;;;;6184734;23;20378;-82
2022/11/12 17:48:39;;;;;;;24.63;15.30;;;9.00;99.90;;;;;;6186305;23;20096;-81
2022/11/12 17:51:13;;;;;;;25.88;14.98;;;9.00;99.90;;;;;;6184409;23;20045;-79
2022/11/12 17:53:39;;;;;;;27.77;15.73;;;9.00;99.90;;;;;;6184175;23;20343;-80
2022/11/12 17:56:07;;;;;;;24.95;15.68;;;9.00;99.90;;;;;;6183859;23;20040;-82
2022/11/12 17:58:33;;;;;;;22.63;14.68;;;8.90;99.90;;;;;;6184036;23;20013;-81
2022/11/12 18:01:11;;;;;;;27.77;18.55;;;9.00;99.90;;;;;;6183719;23;20040;-80